sensor_id;sensor_type;location;lat;lon;timestamp;P1;durP1;ratioP1;P2;durP2;ratioP2
13475;SDS011;6810;63.824;20.288;2024-03-23T00:55:18;0.20;;;0.20;;
13475;SDS011;6810;63.824;20.288;2024-03-23T00:58:04;0.10;;;0.10;;
13475;SDS011;6810;63.824;20.288;2024-03-23T01:00:51;0.10;;;0.10;;
13475;SDS011;6810;63.824;20.288;2024-03-23T01:03:37;0.10;;;0.10;;
13475;SDS011;6810;63.824;20.288;2024-03-23T01:06:03;0.10;;;0.10;;
13475;SDS011;6810;63.824;20.288;2024-03-23T01:08:29;0.10;;;0.10;;
13475;SDS011;6810;63.824;20.288;2024-03-23T01:10:56;0.17;;;0.17;;
13475;SDS011;6810;63.824;20.288;2024-03-23T01:13:43;0.20;;;0.20;;
13475;SDS011;6810;63.824;20.288;2024-03-23T01:16:29;0.00;;;0.00;;
13475;SDS011;6810;63.824;20.288;2024-03-23T01:19:15;0.00;;;0.00;;
13475;SDS011;6810;63.824;20.288;2024-03-23T01:22:01;0.10;;;0.10;;
13475;SDS011;6810;63.824;20.288;2024-03-23T01:24:47;0.13;;;0.10;;
13475;SDS011;6810;63.824;20.288;2024-03-23T01:27:33;0.10;;;0.10;;
13475;SDS011;6810;63.824;20.288;2024-03-23T01:30:19;0.03;;;0.03;;
13475;SDS011;6810;63.824;20.288;2024-03-23T01:33:05;0.00;;;0.00;;
13475;SDS011;6810;63.824;20.288;2024-03-23T01:35:52;0.10;;;0.10;;
13475;SDS011;6810;63.824;20.288;2024-03-23T01:38:38;0.10;;;0.10;;
13475;SDS011;6810;63.824;20.288;2024-03-23T01:41:24;0.20;;;0.10;;
13475;SDS011;6810;63.824;20.288;2024-03-23T01:44:10;0.00;;;0.00;;
13475;SDS011;6810;63.824;20.288;2024-03-23T01:46:56;0.10;;;0.10;;
13475;SDS011;6810;63.824;20.288;2024-03-23T01:49:42;0.03;;;0.03;;
13475;SDS011;6810;63.824;20.288;2024-03-23T01:52:29;0.00;;;0.00;;
13475;SDS011;6810;63.824;20.288;2024-03-23T01:55:15;0.10;;;0.10;;
13475;SDS011;6810;63.824;20.288;2024-03-23T01:58:04;0.10;;;0.10;;
13475;SDS011;6810;63.824;20.288;2024-03-23T02:00:31;0.10;;;0.10;;
13475;SDS011;6810;63.824;20.288;2024-03-23T02:03:27;0.10;;;0.10;;
13475;SDS011;6810;63.824;20.288;2024-03-23T02:06:13;0.00;;;0.00;;
13475;SDS011;6810;63.824;20.288;2024-03-23T02:08:59;0.00;;;0.00;;
13475;SDS011;6810;63.824;20.288;2024-03-23T02:11:46;0.00;;;0.00;;
13475;SDS011;6810;63.824;20.288;2024-03-23T02:14:12;0.00;;;0.00;;
13475;SDS011;6810;63.824;20.288;2024-03-23T02:16:38;0.00;;;0.00;;
13475;SDS011;6810;63.824;20.288;2024-03-23T02:19:04;0.00;;;0.00;;
13475;SDS011;6810;63.824;20.288;2024-03-23T02:21:31;0.00;;;0.00;;
13475;SDS011;6810;63.824;20.288;2024-03-23T02:23:58;0.00;;;0.00;;
13475;SDS011;6810;63.824;20.288;2024-03-23T02:26:25;0.10;;;0.00;;
13475;SDS011;6810;63.824;20.288;2024-03-23T02:28:51;0.10;;;0.10;;
13475;SDS011;6810;63.824;20.288;2024-03-23T02:31:17;0.07;;;0.00;;
13475;SDS011;6810;63.824;20.288;2024-03-23T02:33:43;0.00;;;0.00;;
13475;SDS011;6810;63.824;20.288;2024-03-23T02:36:09;0.00;;;0.00;;
13475;SDS011;6810;63.824;20.288;2024-03-23T02:38:56;0.00;;;0.00;;
13475;SDS011;6810;63.824;20.288;2024-03-23T02:41:42;1.07;;;0.10;;
13475;SDS011;6810;63.824;20.288;2024-03-23T02:44:28;0.00;;;0.00;;
13475;SDS011;6810;63.824;20.288;2024-03-23T02:47:14;0.00;;;0.00;;
13475;SDS011;6810;63.824;20.288;2024-03-23T02:50:00;0.00;;;0.00;;
13475;SDS011;6810;63.824;20.288;2024-03-23T02:52:47;0.00;;;0.00;;
13475;SDS011;6810;63.824;20.288;2024-03-23T02:55:33;0.00;;;0.00;;
13475;SDS011;6810;63.824;20.288;2024-03-23T02:58:19;0.10;;;0.10;;
13475;SDS011;6810;63.824;20.288;2024-03-23T03:01:05;0.00;;;0.00;;
13475;SDS011;6810;63.824;20.288;2024-03-23T03:03:51;0.00;;;0.00;;
13475;SDS011;6810;63.824;20.288;2024-03-23T03:06:37;0.07;;;0.07;;
13475;SDS011;6810;63.824;20.288;2024-03-23T03:09:23;0.33;;;0.10;;
13475;SDS011;6810;63.824;20.288;2024-03-23T03:11:50;0.00;;;0.00;;
13475;SDS011;6810;63.824;20.288;2024-03-23T03:14:16;0.00;;;0.00;;
13475;SDS011;6810;63.824;20.288;2024-03-23T03:17:02;0.07;;;0.07;;
13475;SDS011;6810;63.824;20.288;2024-03-23T03:19:48;0.00;;;0.00;;
13475;SDS011;6810;63.824;20.288;2024-03-23T03:22:34;0.00;;;0.00;;
13475;SDS011;6810;63.824;20.288;2024-03-23T03:25:20;0.00;;;0.00;;
13475;SDS011;6810;63.824;20.288;2024-03-23T03:28:06;0.00;;;0.00;;
13475;SDS011;6810;63.824;20.288;2024-03-23T03:30:52;0.00;;;0.00;;
13475;SDS011;6810;63.824;20.288;2024-03-23T03:33:38;0.73;;;0.00;;
13475;SDS011;6810;63.824;20.288;2024-03-23T03:36:24;0.00;;;0.00;;
13475;SDS011;6810;63.824;20.288;2024-03-23T03:39:10;0.00;;;0.00;;
13475;SDS011;6810;63.824;20.288;2024-03-23T03:41:56;0.00;;;0.00;;
13475;SDS011;6810;63.824;20.288;2024-03-23T03:44:42;0.00;;;0.00;;
13475;SDS011;6810;63.824;20.288;2024-03-23T03:47:28;0.00;;;0.00;;
13475;SDS011;6810;63.824;20.288;2024-03-23T03:50:14;0.00;;;0.00;;
13475;SDS011;6810;63.824;20.288;2024-03-23T03:53:00;0.00;;;0.00;;
13475;SDS011;6810;63.824;20.288;2024-03-23T03:55:47;0.17;;;0.00;;
13475;SDS011;6810;63.824;20.288;2024-03-23T03:58:33;0.00;;;0.00;;
13475;SDS011;6810;63.824;20.288;2024-03-23T04:01:19;0.00;;;0.00;;
13475;SDS011;6810;63.824;20.288;2024-03-23T04:04:05;0.10;;;0.00;;
13475;SDS011;6810;63.824;20.288;2024-03-23T04:06:58;0.10;;;0.10;;
13475;SDS011;6810;63.824;20.288;2024-03-23T04:09:47;0.00;;;0.00;;
13475;SDS011;6810;63.824;20.288;2024-03-23T04:12:33;0.10;;;0.10;;
13475;SDS011;6810;63.824;20.288;2024-03-23T04:15:20;0.00;;;0.00;;
13475;SDS011;6810;63.824;20.288;2024-03-23T04:18:06;0.00;;;0.00;;
13475;SDS011;6810;63.824;20.288;2024-03-23T04:20:52;0.00;;;0.00;;
13475;SDS011;6810;63.824;20.288;2024-03-23T04:23:38;0.03;;;0.00;;
13475;SDS011;6810;63.824;20.288;2024-03-23T04:26:24;0.00;;;0.00;;
13475;SDS011;6810;63.824;20.288;2024-03-23T04:29:10;0.00;;;0.00;;
13475;SDS011;6810;63.824;20.288;2024-03-23T04:31:56;0.00;;;0.00;;
13475;SDS011;6810;63.824;20.288;2024-03-23T04:34:43;0.00;;;0.00;;
13475;SDS011;6810;63.824;20.288;2024-03-23T04:37:30;0.00;;;0.00;;
13475;SDS011;6810;63.824;20.288;2024-03-23T04:40:16;0.00;;;0.00;;
13475;SDS011;6810;63.824;20.288;2024-03-23T04:43:02;0.00;;;0.00;;
13475;SDS011;6810;63.824;20.288;2024-03-23T04:45:48;0.00;;;0.00;;
13475;SDS011;6810;63.824;20.288;2024-03-23T04:48:34;0.00;;;0.00;;
13475;SDS011;6810;63.824;20.288;2024-03-23T04:51:24;0.00;;;0.00;;
13475;SDS011;6810;63.824;20.288;2024-03-23T04:54:11;0.00;;;0.00;;
13475;SDS011;6810;63.824;20.288;2024-03-23T04:56:58;0.00;;;0.00;;
13475;SDS011;6810;63.824;20.288;2024-03-23T04:59:46;0.00;;;0.00;;
13475;SDS011;6810;63.824;20.288;2024-03-23T05:02:32;0.00;;;0.00;;
13475;SDS011;6810;63.824;20.288;2024-03-23T05:05:18;0.00;;;0.00;;
13475;SDS011;6810;63.824;20.288;2024-03-23T05:08:04;0.00;;;0.00;;
13475;SDS011;6810;63.824;20.288;2024-03-23T05:10:51;0.00;;;0.00;;
13475;SDS011;6810;63.824;20.288;2024-03-23T05:13:37;0.00;;;0.00;;
13475;SDS011;6810;63.824;20.288;2024-03-23T05:16:23;0.00;;;0.00;;
13475;SDS011;6810;63.824;20.288;2024-03-23T05:19:09;0.00;;;0.00;;
13475;SDS011;6810;63.824;20.288;2024-03-23T05:21:55;0.17;;;0.00;;
13475;SDS011;6810;63.824;20.288;2024-03-23T05:24:41;0.00;;;0.00;;
13475;SDS011;6810;63.824;20.288;2024-03-23T05:27:27;0.00;;;0.00;;
13475;SDS011;6810;63.824;20.288;2024-03-23T05:30:14;0.10;;;0.10;;
13475;SDS011;6810;63.824;20.288;2024-03-23T05:33:00;0.00;;;0.00;;
13475;SDS011;6810;63.824;20.288;2024-03-23T05:35:46;0.20;;;0.00;;
13475;SDS011;6810;63.824;20.288;2024-03-23T05:38:33;0.00;;;0.00;;
13475;SDS011;6810;63.824;20.288;2024-03-23T05:41:19;0.10;;;0.00;;
13475;SDS011;6810;63.824;20.288;2024-03-23T05:44:05;0.17;;;0.00;;
13475;SDS011;6810;63.824;20.288;2024-03-23T05:46:51;0.40;;;0.00;;
13475;SDS011;6810;63.824;20.288;2024-03-23T05:49:37;0.00;;;0.00;;
13475;SDS011;6810;63.824;20.288;2024-03-23T05:52:23;0.00;;;0.00;;
13475;SDS011;6810;63.824;20.288;2024-03-23T05:55:09;0.30;;;0.00;;
13475;SDS011;6810;63.824;20.288;2024-03-23T05:57:55;0.00;;;0.00;;
13475;SDS011;6810;63.824;20.288;2024-03-23T06:00:42;0.00;;;0.00;;
13475;SDS011;6810;63.824;20.288;2024-03-23T06:03:28;0.00;;;0.00;;
13475;SDS011;6810;63.824;20.288;2024-03-23T06:06:14;0.20;;;0.00;;
13475;SDS011;6810;63.824;20.288;2024-03-23T06:09:01;0.00;;;0.00;;
13475;SDS011;6810;63.824;20.288;2024-03-23T06:11:48;0.00;;;0.00;;
13475;SDS011;6810;63.824;20.288;2024-03-23T06:14:34;0.00;;;0.00;;
13475;SDS011;6810;63.824;20.288;2024-03-23T06:17:20;0.00;;;0.00;;
13475;SDS011;6810;63.824;20.288;2024-03-23T06:20:07;0.00;;;0.00;;
13475;SDS011;6810;63.824;20.288;2024-03-23T06:22:53;0.00;;;0.00;;
13475;SDS011;6810;63.824;20.288;2024-03-23T06:25:39;0.00;;;0.00;;
13475;SDS011;6810;63.824;20.288;2024-03-23T06:28:25;0.00;;;0.00;;
13475;SDS011;6810;63.824;20.288;2024-03-23T06:31:12;0.00;;;0.00;;
13475;SDS011;6810;63.824;20.288;2024-03-23T06:33:58;0.00;;;0.00;;
13475;SDS011;6810;63.824;20.288;2024-03-23T06:36:44;0.00;;;0.00;;
13475;SDS011;6810;63.824;20.288;2024-03-23T06:39:30;0.00;;;0.00;;
13475;SDS011;6810;63.824;20.288;2024-03-23T06:42:16;0.00;;;0.00;;
13475;SDS011;6810;63.824;20.288;2024-03-23T06:45:02;0.00;;;0.00;;
13475;SDS011;6810;63.824;20.288;2024-03-23T06:47:52;0.00;;;0.00;;
13475;SDS011;6810;63.824;20.288;2024-03-23T06:50:38;0.00;;;0.00;;
13475;SDS011;6810;63.824;20.288;2024-03-23T06:53:24;0.00;;;0.00;;
13475;SDS011;6810;63.824;20.288;2024-03-23T06:56:11;0.00;;;0.00;;
13475;SDS011;6810;63.824;20.288;2024-03-23T06:58:57;0.00;;;0.00;;
13475;SDS011;6810;63.824;20.288;2024-03-23T07:01:43;0.00;;;0.00;;
13475;SDS011;6810;63.824;20.288;2024-03-23T07:04:30;0.10;;;0.10;;
13475;SDS011;6810;63.824;20.288;2024-03-23T07:07:16;0.00;;;0.00;;
13475;SDS011;6810;63.824;20.288;2024-03-23T07:10:02;0.10;;;0.00;;
13475;SDS011;6810;63.824;20.288;2024-03-23T07:12:48;0.00;;;0.00;;
13475;SDS011;6810;63.824;20.288;2024-03-23T07:15:34;0.00;;;0.00;;
13475;SDS011;6810;63.824;20.288;2024-03-23T07:18:21;0.00;;;0.00;;
13475;SDS011;6810;63.824;20.288;2024-03-23T07:20:54;0.00;;;0.00;;
13475;SDS011;6810;63.824;20.288;2024-03-23T07:23:24;0.10;;;0.00;;
13475;SDS011;6810;63.824;20.288;2024-03-23T07:26:10;0.00;;;0.00;;
13475;SDS011;6810;63.824;20.288;2024-03-23T07:28:57;0.00;;;0.00;;
13475;SDS011;6810;63.824;20.288;2024-03-23T07:31:43;0.10;;;0.10;;
13475;SDS011;6810;63.824;20.288;2024-03-23T07:34:32;0.00;;;0.00;;
13475;SDS011;6810;63.824;20.288;2024-03-23T07:37:18;0.00;;;0.00;;
13475;SDS011;6810;63.824;20.288;2024-03-23T07:40:04;0.13;;;0.03;;
13475;SDS011;6810;63.824;20.288;2024-03-23T07:42:51;0.00;;;0.00;;
13475;SDS011;6810;63.824;20.288;2024-03-23T07:45:37;0.93;;;0.00;;
13475;SDS011;6810;63.824;20.288;2024-03-23T07:48:23;0.00;;;0.00;;
13475;SDS011;6810;63.824;20.288;2024-03-23T07:51:17;0.20;;;0.10;;
13475;SDS011;6810;63.824;20.288;2024-03-23T07:54:06;0.00;;;0.00;;
13475;SDS011;6810;63.824;20.288;2024-03-23T07:56:52;0.00;;;0.00;;
13475;SDS011;6810;63.824;20.288;2024-03-23T07:59:38;0.07;;;0.07;;
13475;SDS011;6810;63.824;20.288;2024-03-23T08:02:24;0.03;;;0.00;;
13475;SDS011;6810;63.824;20.288;2024-03-23T08:05:10;0.00;;;0.00;;
13475;SDS011;6810;63.824;20.288;2024-03-23T08:07:56;0.20;;;0.20;;
13475;SDS011;6810;63.824;20.288;2024-03-23T08:10:52;0.20;;;0.20;;
13475;SDS011;6810;63.824;20.288;2024-03-23T08:13:41;0.10;;;0.10;;
13475;SDS011;6810;63.824;20.288;2024-03-23T08:16:28;0.10;;;0.10;;
13475;SDS011;6810;63.824;20.288;2024-03-23T08:19:14;0.17;;;0.17;;
13475;SDS011;6810;63.824;20.288;2024-03-23T08:22:01;0.80;;;0.10;;
13475;SDS011;6810;63.824;20.288;2024-03-23T08:24:47;0.10;;;0.10;;
13475;SDS011;6810;63.824;20.288;2024-03-23T08:27:33;0.10;;;0.10;;
13475;SDS011;6810;63.824;20.288;2024-03-23T08:30:19;0.10;;;0.10;;
13475;SDS011;6810;63.824;20.288;2024-03-23T08:33:05;0.77;;;0.30;;
13475;SDS011;6810;63.824;20.288;2024-03-23T08:35:55;0.20;;;0.10;;
13475;SDS011;6810;63.824;20.288;2024-03-23T08:38:42;0.10;;;0.10;;
13475;SDS011;6810;63.824;20.288;2024-03-23T08:41:28;0.27;;;0.20;;
13475;SDS011;6810;63.824;20.288;2024-03-23T08:44:14;0.10;;;0.10;;
13475;SDS011;6810;63.824;20.288;2024-03-23T08:47:00;0.40;;;0.10;;
13475;SDS011;6810;63.824;20.288;2024-03-23T08:49:46;0.23;;;0.23;;
13475;SDS011;6810;63.824;20.288;2024-03-23T08:52:32;0.20;;;0.20;;
13475;SDS011;6810;63.824;20.288;2024-03-23T08:55:18;0.30;;;0.30;;
13475;SDS011;6810;63.824;20.288;2024-03-23T08:58:05;0.80;;;0.30;;
13475;SDS011;6810;63.824;20.288;2024-03-23T09:00:51;0.20;;;0.20;;
13475;SDS011;6810;63.824;20.288;2024-03-23T09:03:38;0.30;;;0.30;;
13475;SDS011;6810;63.824;20.288;2024-03-23T09:06:24;0.40;;;0.30;;
13475;SDS011;6810;63.824;20.288;2024-03-23T09:09:10;0.40;;;0.40;;
13475;SDS011;6810;63.824;20.288;2024-03-23T09:11:56;0.40;;;0.40;;
13475;SDS011;6810;63.824;20.288;2024-03-23T09:14:42;0.27;;;0.27;;
13475;SDS011;6810;63.824;20.288;2024-03-23T09:17:29;0.40;;;0.40;;
13475;SDS011;6810;63.824;20.288;2024-03-23T09:20:15;0.40;;;0.40;;
13475;SDS011;6810;63.824;20.288;2024-03-23T09:23:01;0.50;;;0.50;;
13475;SDS011;6810;63.824;20.288;2024-03-23T09:25:47;0.40;;;0.40;;
13475;SDS011;6810;63.824;20.288;2024-03-23T09:28:33;0.37;;;0.30;;
13475;SDS011;6810;63.824;20.288;2024-03-23T09:31:19;0.50;;;0.50;;
13475;SDS011;6810;63.824;20.288;2024-03-23T09:34:05;0.43;;;0.37;;
13475;SDS011;6810;63.824;20.288;2024-03-23T09:36:52;0.67;;;0.40;;
13475;SDS011;6810;63.824;20.288;2024-03-23T09:39:38;1.07;;;0.30;;
13475;SDS011;6810;63.824;20.288;2024-03-23T09:42:24;0.43;;;0.43;;
13475;SDS011;6810;63.824;20.288;2024-03-23T09:45:11;0.50;;;0.50;;
13475;SDS011;6810;63.824;20.288;2024-03-23T09:48:03;0.80;;;0.70;;
13475;SDS011;6810;63.824;20.288;2024-03-23T09:50:50;1.17;;;0.60;;
13475;SDS011;6810;63.824;20.288;2024-03-23T09:53:36;0.60;;;0.53;;
13475;SDS011;6810;63.824;20.288;2024-03-23T09:56:23;0.77;;;0.77;;
13475;SDS011;6810;63.824;20.288;2024-03-23T09:59:09;0.73;;;0.50;;
13475;SDS011;6810;63.824;20.288;2024-03-23T10:01:55;0.60;;;0.60;;
13475;SDS011;6810;63.824;20.288;2024-03-23T10:04:42;1.33;;;0.70;;
13475;SDS011;6810;63.824;20.288;2024-03-23T10:07:29;1.27;;;0.80;;
13475;SDS011;6810;63.824;20.288;2024-03-23T10:10:15;1.13;;;0.70;;
13475;SDS011;6810;63.824;20.288;2024-03-23T10:13:01;1.03;;;0.70;;
13475;SDS011;6810;63.824;20.288;2024-03-23T10:15:48;0.67;;;0.60;;
13475;SDS011;6810;63.824;20.288;2024-03-23T10:18:40;0.70;;;0.70;;
13475;SDS011;6810;63.824;20.288;2024-03-23T10:21:26;0.43;;;0.43;;
13475;SDS011;6810;63.824;20.288;2024-03-23T10:24:12;0.83;;;0.63;;
13475;SDS011;6810;63.824;20.288;2024-03-23T10:26:59;1.20;;;0.83;;
13475;SDS011;6810;63.824;20.288;2024-03-23T10:29:48;0.60;;;0.60;;
13475;SDS011;6810;63.824;20.288;2024-03-23T10:32:35;0.60;;;0.60;;
13475;SDS011;6810;63.824;20.288;2024-03-23T10:35:22;0.87;;;0.77;;
13475;SDS011;6810;63.824;20.288;2024-03-23T10:38:08;0.60;;;0.50;;
13475;SDS011;6810;63.824;20.288;2024-03-23T10:40:55;0.50;;;0.50;;
13475;SDS011;6810;63.824;20.288;2024-03-23T10:43:43;0.90;;;0.80;;
13475;SDS011;6810;63.824;20.288;2024-03-23T10:46:31;0.63;;;0.50;;
13475;SDS011;6810;63.824;20.288;2024-03-23T10:49:19;0.67;;;0.67;;
13475;SDS011;6810;63.824;20.288;2024-03-23T10:52:05;0.50;;;0.50;;
13475;SDS011;6810;63.824;20.288;2024-03-23T10:54:51;1.13;;;0.70;;
13475;SDS011;6810;63.824;20.288;2024-03-23T10:57:40;0.67;;;0.60;;
13475;SDS011;6810;63.824;20.288;2024-03-23T11:00:30;0.77;;;0.70;;
13475;SDS011;6810;63.824;20.288;2024-03-23T11:03:35;0.80;;;0.77;;
13475;SDS011;6810;63.824;20.288;2024-03-23T11:06:43;1.03;;;0.80;;
13475;SDS011;6810;63.824;20.288;2024-03-23T11:15:12;0.80;;;0.80;;
13475;SDS011;6810;63.824;20.288;2024-03-23T11:18:02;1.00;;;0.73;;
13475;SDS011;6810;63.824;20.288;2024-03-23T11:20:55;0.70;;;0.70;;
13475;SDS011;6810;63.824;20.288;2024-03-23T11:23:41;0.97;;;0.80;;
13475;SDS011;6810;63.824;20.288;2024-03-23T11:26:28;1.73;;;0.83;;
13475;SDS011;6810;63.824;20.288;2024-03-23T11:29:15;1.43;;;0.80;;
13475;SDS011;6810;63.824;20.288;2024-03-23T11:32:02;1.43;;;0.90;;
13475;SDS011;6810;63.824;20.288;2024-03-23T11:34:48;0.67;;;0.67;;
13475;SDS011;6810;63.824;20.288;2024-03-23T11:37:34;1.30;;;0.90;;
13475;SDS011;6810;63.824;20.288;2024-03-23T11:40:20;0.80;;;0.67;;
13475;SDS011;6810;63.824;20.288;2024-03-23T11:43:07;0.60;;;0.60;;
13475;SDS011;6810;63.824;20.288;2024-03-23T11:45:55;0.80;;;0.80;;
13475;SDS011;6810;63.824;20.288;2024-03-23T11:48:41;0.90;;;0.80;;
13475;SDS011;6810;63.824;20.288;2024-03-23T11:51:35;0.70;;;0.70;;
13475;SDS011;6810;63.824;20.288;2024-03-23T11:54:22;0.83;;;0.80;;
13475;SDS011;6810;63.824;20.288;2024-03-23T11:57:09;0.60;;;0.60;;
13475;SDS011;6810;63.824;20.288;2024-03-23T11:59:56;0.70;;;0.67;;
13475;SDS011;6810;63.824;20.288;2024-03-23T12:02:43;0.93;;;0.70;;
13475;SDS011;6810;63.824;20.288;2024-03-23T12:05:30;0.90;;;0.90;;
13475;SDS011;6810;63.824;20.288;2024-03-23T12:08:17;1.30;;;1.03;;
13475;SDS011;6810;63.824;20.288;2024-03-23T12:11:04;1.00;;;0.80;;
13475;SDS011;6810;63.824;20.288;2024-03-23T12:13:52;1.20;;;0.70;;
13475;SDS011;6810;63.824;20.288;2024-03-23T12:16:38;0.83;;;0.70;;
13475;SDS011;6810;63.824;20.288;2024-03-23T12:19:24;0.80;;;0.73;;
13475;SDS011;6810;63.824;20.288;2024-03-23T12:22:10;0.83;;;0.80;;
13475;SDS011;6810;63.824;20.288;2024-03-23T12:24:56;0.77;;;0.77;;
13475;SDS011;6810;63.824;20.288;2024-03-23T12:27:42;0.73;;;0.73;;
13475;SDS011;6810;63.824;20.288;2024-03-23T12:30:28;1.47;;;0.90;;
13475;SDS011;6810;63.824;20.288;2024-03-23T12:33:14;0.63;;;0.63;;
13475;SDS011;6810;63.824;20.288;2024-03-23T12:36:00;0.87;;;0.73;;
13475;SDS011;6810;63.824;20.288;2024-03-23T12:38:46;0.80;;;0.57;;
13475;SDS011;6810;63.824;20.288;2024-03-23T12:41:33;0.87;;;0.50;;
13475;SDS011;6810;63.824;20.288;2024-03-23T12:44:19;0.60;;;0.53;;
13475;SDS011;6810;63.824;20.288;2024-03-23T12:47:05;0.70;;;0.60;;
13475;SDS011;6810;63.824;20.288;2024-03-23T12:49:51;0.70;;;0.70;;
13475;SDS011;6810;63.824;20.288;2024-03-23T12:52:37;0.70;;;0.67;;
13475;SDS011;6810;63.824;20.288;2024-03-23T12:55:23;0.97;;;0.60;;
13475;SDS011;6810;63.824;20.288;2024-03-23T12:58:09;0.60;;;0.57;;
13475;SDS011;6810;63.824;20.288;2024-03-23T13:00:57;0.50;;;0.50;;
13475;SDS011;6810;63.824;20.288;2024-03-23T13:03:45;0.60;;;0.60;;
13475;SDS011;6810;63.824;20.288;2024-03-23T13:06:32;0.70;;;0.70;;
13475;SDS011;6810;63.824;20.288;2024-03-23T13:09:18;0.90;;;0.70;;
13475;SDS011;6810;63.824;20.288;2024-03-23T13:12:04;1.90;;;0.67;;
13475;SDS011;6810;63.824;20.288;2024-03-23T13:14:50;0.70;;;0.53;;
13475;SDS011;6810;63.824;20.288;2024-03-23T13:17:36;0.60;;;0.50;;
13475;SDS011;6810;63.824;20.288;2024-03-23T13:20:23;1.30;;;0.60;;
13475;SDS011;6810;63.824;20.288;2024-03-23T13:22:49;0.60;;;0.60;;
13475;SDS011;6810;63.824;20.288;2024-03-23T13:25:17;0.40;;;0.40;;
13475;SDS011;6810;63.824;20.288;2024-03-23T13:28:03;0.93;;;0.60;;
13475;SDS011;6810;63.824;20.288;2024-03-23T13:30:52;1.03;;;0.40;;
13475;SDS011;6810;63.824;20.288;2024-03-23T13:33:39;0.30;;;0.30;;
13475;SDS011;6810;63.824;20.288;2024-03-23T13:36:26;0.50;;;0.40;;
13475;SDS011;6810;63.824;20.288;2024-03-23T13:39:12;0.50;;;0.30;;
13475;SDS011;6810;63.824;20.288;2024-03-23T13:41:59;0.40;;;0.40;;
13475;SDS011;6810;63.824;20.288;2024-03-23T13:44:45;0.40;;;0.40;;
13475;SDS011;6810;63.824;20.288;2024-03-23T13:47:31;0.40;;;0.40;;
13475;SDS011;6810;63.824;20.288;2024-03-23T13:50:17;0.43;;;0.43;;
13475;SDS011;6810;63.824;20.288;2024-03-23T13:53:03;0.40;;;0.40;;
13475;SDS011;6810;63.824;20.288;2024-03-23T13:55:50;0.77;;;0.53;;
13475;SDS011;6810;63.824;20.288;2024-03-23T13:58:36;0.80;;;0.70;;
13475;SDS011;6810;63.824;20.288;2024-03-23T14:01:22;0.53;;;0.50;;
13475;SDS011;6810;63.824;20.288;2024-03-23T14:04:08;1.00;;;0.70;;
13475;SDS011;6810;63.824;20.288;2024-03-23T14:06:54;0.57;;;0.57;;
13475;SDS011;6810;63.824;20.288;2024-03-23T14:09:40;0.73;;;0.60;;
13475;SDS011;6810;63.824;20.288;2024-03-23T14:12:26;1.07;;;0.70;;
13475;SDS011;6810;63.824;20.288;2024-03-23T14:15:12;0.60;;;0.60;;
13475;SDS011;6810;63.824;20.288;2024-03-23T14:17:58;1.10;;;0.73;;
13475;SDS011;6810;63.824;20.288;2024-03-23T14:20:45;0.90;;;0.70;;
13475;SDS011;6810;63.824;20.288;2024-03-23T14:23:31;1.00;;;0.77;;
13475;SDS011;6810;63.824;20.288;2024-03-23T14:26:20;1.10;;;0.80;;
13475;SDS011;6810;63.824;20.288;2024-03-23T14:29:06;0.77;;;0.63;;
13475;SDS011;6810;63.824;20.288;2024-03-23T14:31:52;0.70;;;0.67;;
13475;SDS011;6810;63.824;20.288;2024-03-23T14:34:38;1.33;;;0.80;;
13475;SDS011;6810;63.824;20.288;2024-03-23T14:37:24;0.73;;;0.60;;
13475;SDS011;6810;63.824;20.288;2024-03-23T14:40:11;0.60;;;0.60;;
13475;SDS011;6810;63.824;20.288;2024-03-23T14:42:57;1.73;;;0.70;;
13475;SDS011;6810;63.824;20.288;2024-03-23T14:48:51;0.80;;;0.60;;
13475;SDS011;6810;63.824;20.288;2024-03-23T14:51:37;0.60;;;0.47;;
13475;SDS011;6810;63.824;20.288;2024-03-23T14:54:23;0.73;;;0.60;;
13475;SDS011;6810;63.824;20.288;2024-03-23T14:57:10;0.40;;;0.40;;
13475;SDS011;6810;63.824;20.288;2024-03-23T14:59:56;0.57;;;0.57;;
13475;SDS011;6810;63.824;20.288;2024-03-23T15:02:42;0.60;;;0.50;;
13475;SDS011;6810;63.824;20.288;2024-03-23T15:05:28;0.57;;;0.57;;
13475;SDS011;6810;63.824;20.288;2024-03-23T15:08:14;1.17;;;0.50;;
13475;SDS011;6810;63.824;20.288;2024-03-23T15:11:01;0.47;;;0.40;;
13475;SDS011;6810;63.824;20.288;2024-03-23T15:13:49;0.30;;;0.30;;
13475;SDS011;6810;63.824;20.288;2024-03-23T15:16:35;1.03;;;0.53;;
13475;SDS011;6810;63.824;20.288;2024-03-23T15:19:22;0.47;;;0.37;;
13475;SDS011;6810;63.824;20.288;2024-03-23T15:22:08;1.87;;;0.37;;
13475;SDS011;6810;63.824;20.288;2024-03-23T15:24:54;0.43;;;0.43;;
13475;SDS011;6810;63.824;20.288;2024-03-23T15:27:40;0.50;;;0.40;;
13475;SDS011;6810;63.824;20.288;2024-03-23T15:30:26;0.63;;;0.50;;
13475;SDS011;6810;63.824;20.288;2024-03-23T15:33:12;0.40;;;0.40;;
13475;SDS011;6810;63.824;20.288;2024-03-23T15:35:59;2.47;;;0.70;;
13475;SDS011;6810;63.824;20.288;2024-03-23T15:38:46;0.50;;;0.47;;
13475;SDS011;6810;63.824;20.288;2024-03-23T15:41:32;0.50;;;0.50;;
13475;SDS011;6810;63.824;20.288;2024-03-23T15:44:18;0.70;;;0.50;;
13475;SDS011;6810;63.824;20.288;2024-03-23T15:47:05;0.60;;;0.60;;
13475;SDS011;6810;63.824;20.288;2024-03-23T15:49:51;0.63;;;0.50;;
13475;SDS011;6810;63.824;20.288;2024-03-23T15:52:37;0.93;;;0.50;;
13475;SDS011;6810;63.824;20.288;2024-03-23T15:55:23;0.83;;;0.40;;
13475;SDS011;6810;63.824;20.288;2024-03-23T15:58:09;1.00;;;0.50;;
13475;SDS011;6810;63.824;20.288;2024-03-23T16:00:35;1.33;;;0.50;;
13475;SDS011;6810;63.824;20.288;2024-03-23T16:03:01;1.00;;;0.60;;
13475;SDS011;6810;63.824;20.288;2024-03-23T16:05:28;0.53;;;0.50;;
13475;SDS011;6810;63.824;20.288;2024-03-23T16:08:14;0.50;;;0.50;;
13475;SDS011;6810;63.824;20.288;2024-03-23T16:11:00;0.60;;;0.40;;
13475;SDS011;6810;63.824;20.288;2024-03-23T16:13:47;0.70;;;0.40;;
13475;SDS011;6810;63.824;20.288;2024-03-23T16:16:33;0.40;;;0.40;;
13475;SDS011;6810;63.824;20.288;2024-03-23T16:19:19;0.97;;;0.53;;
13475;SDS011;6810;63.824;20.288;2024-03-23T16:22:05;1.63;;;0.50;;
13475;SDS011;6810;63.824;20.288;2024-03-23T16:24:51;0.40;;;0.40;;
13475;SDS011;6810;63.824;20.288;2024-03-23T16:27:37;0.60;;;0.40;;
13475;SDS011;6810;63.824;20.288;2024-03-23T16:30:24;0.80;;;0.80;;
13475;SDS011;6810;63.824;20.288;2024-03-23T16:33:10;0.57;;;0.57;;
13475;SDS011;6810;63.824;20.288;2024-03-23T16:36:03;1.47;;;0.60;;
13475;SDS011;6810;63.824;20.288;2024-03-23T16:38:54;1.13;;;0.70;;
13475;SDS011;6810;63.824;20.288;2024-03-23T16:41:40;0.77;;;0.70;;
13475;SDS011;6810;63.824;20.288;2024-03-23T16:44:26;1.10;;;0.90;;
13475;SDS011;6810;63.824;20.288;2024-03-23T16:47:12;0.80;;;0.70;;
13475;SDS011;6810;63.824;20.288;2024-03-23T16:49:58;0.90;;;0.70;;
13475;SDS011;6810;63.824;20.288;2024-03-23T16:52:44;1.03;;;0.73;;
13475;SDS011;6810;63.824;20.288;2024-03-23T16:55:30;0.70;;;0.70;;
13475;SDS011;6810;63.824;20.288;2024-03-23T16:58:16;0.80;;;0.70;;
13475;SDS011;6810;63.824;20.288;2024-03-23T17:01:03;0.97;;;0.73;;
13475;SDS011;6810;63.824;20.288;2024-03-23T17:03:50;2.30;;;0.50;;
13475;SDS011;6810;63.824;20.288;2024-03-23T17:06:37;1.50;;;0.93;;
13475;SDS011;6810;63.824;20.288;2024-03-23T17:09:23;1.20;;;1.00;;
13475;SDS011;6810;63.824;20.288;2024-03-23T17:12:10;1.17;;;1.03;;
13475;SDS011;6810;63.824;20.288;2024-03-23T17:14:56;1.03;;;0.93;;
13475;SDS011;6810;63.824;20.288;2024-03-23T17:17:42;1.33;;;1.03;;
13475;SDS011;6810;63.824;20.288;2024-03-23T17:20:28;1.30;;;0.90;;
13475;SDS011;6810;63.824;20.288;2024-03-23T17:23:22;2.27;;;1.33;;
13475;SDS011;6810;63.824;20.288;2024-03-23T17:26:08;1.10;;;1.00;;
13475;SDS011;6810;63.824;20.288;2024-03-23T17:28:54;1.57;;;1.10;;
13475;SDS011;6810;63.824;20.288;2024-03-23T17:31:40;1.83;;;1.20;;
13475;SDS011;6810;63.824;20.288;2024-03-23T17:34:26;1.03;;;0.90;;
13475;SDS011;6810;63.824;20.288;2024-03-23T17:37:12;1.77;;;0.93;;
13475;SDS011;6810;63.824;20.288;2024-03-23T17:39:58;0.93;;;0.83;;